Time;durP1;ratioP1;P1;durP2;ratioP2;P2;SDS_P1;SDS_P2;PMS_P1;PMS_P2;Temp;Humidity;BMP_temperature;BMP_pressure;BME280_temperature;BME280_humidity;BME280_pressure;Samples;Min_cycle;Max_cycle;Signal;HPM_P1;HPM_P2
2022/03/17 00:00:15;;;;;;;26.05;17.50;;;;;;;11.16;62.32;101862.53;5100758;28;20045;-68
2022/03/17 00:02:43;;;;;;;22.75;17.02;;;;;;;11.15;62.02;101856.34;5091374;28;20050;-69
2022/03/17 00:05:12;;;;;;;25.48;18.27;;;;;;;11.14;62.39;101851.97;5093191;28;20037;-69
2022/03/17 00:07:42;;;;;;;25.15;17.08;;;;;;;11.14;62.39;101856.38;5101646;28;20047;-70
2022/03/17 00:10:15;;;;;;;25.23;18.27;;;;;;;11.13;62.40;101863.44;5092912;28;20048;-67
2022/03/17 00:12:46;;;;;;;29.27;17.30;;;;;;;11.12;62.51;101855.53;5086942;28;20043;-68
2022/03/17 00:15:14;;;;;;;24.25;16.90;;;;;;;11.12;62.30;101855.53;5095382;28;20039;-70
2022/03/17 00:17:41;;;;;;;23.40;17.30;;;;;;;11.11;62.48;101859.06;5104810;28;20040;-71
2022/03/17 00:20:10;;;;;;;27.08;18.05;;;;;;;11.10;62.49;101852.94;5098125;28;20048;-71
2022/03/17 00:22:40;;;;;;;29.75;18.70;;;;;;;11.09;62.58;101845.91;5097184;28;20037;-71
2022/03/17 00:25:08;;;;;;;26.50;18.13;;;;;;;11.06;62.58;101843.31;5090132;28;20518;-69
2022/03/17 00:27:36;;;;;;;25.38;18.17;;;;;;;11.06;62.77;101842.47;5105085;28;20060;-70
2022/03/17 00:30:05;;;;;;;27.00;17.73;;;;;;;11.07;62.50;101847.69;5113121;28;20052;-70
2022/03/17 00:32:33;;;;;;;27.00;18.67;;;;;;;11.06;62.57;101848.59;5109431;27;20052;-69
2022/03/17 00:37:48;;;;;;;28.48;19.60;;;;;;;11.05;62.36;101853.91;5113171;28;20059;-69
2022/03/17 00:40:15;;;;;;;27.77;18.77;;;;;;;11.03;62.66;101849.53;5111550;27;20115;-68
2022/03/17 00:42:42;;;;;;;28.30;18.02;;;;;;;11.03;62.66;101852.16;5111700;27;20486;-70
2022/03/17 00:45:10;;;;;;;28.45;19.00;;;;;;;11.00;62.73;101841.66;5111867;28;20505;-71
2022/03/17 00:47:39;;;;;;;26.08;17.08;;;;;;;10.98;62.86;101845.22;5112946;27;20039;-70
2022/03/17 00:50:08;;;;;;;28.13;19.08;;;;;;;10.97;62.95;101840.81;5112533;27;20040;-72
2022/03/17 00:52:36;;;;;;;26.65;18.25;;;;;;;10.97;62.97;101833.81;5103567;28;20051;-70
2022/03/17 00:55:06;;;;;;;26.95;18.42;;;;;;;10.96;63.09;101828.53;5112091;27;20040;-71
2022/03/17 00:57:39;;;;;;;27.85;18.73;;;;;;;10.93;63.18;101832.09;5112619;27;20044;-71
2022/03/17 01:00:14;;;;;;;26.90;18.00;;;;;;;10.91;63.08;101833.88;5110662;28;20557;-71
2022/03/17 01:02:43;;;;;;;28.45;18.38;;;;;;;10.90;63.12;101847.97;5111523;27;20097;-70
2022/03/17 01:05:12;;;;;;;27.88;18.73;;;;;;;10.87;63.07;101845.41;5111035;27;20047;-71
2022/03/17 01:07:40;;;;;;;26.52;18.40;;;;;;;10.87;63.33;101845.41;5112489;27;20051;-71
2022/03/17 01:10:11;;;;;;;24.50;17.80;;;;;;;10.89;63.33;101848.84;5109589;27;20063;-70
2022/03/17 01:12:39;;;;;;;26.83;19.08;;;;;;;10.89;63.48;101843.56;5110329;27;20172;-69
2022/03/17 01:15:07;;;;;;;24.63;18.35;;;;;;;10.86;63.40;101844.50;5111534;27;20059;-69
2022/03/17 01:17:34;;;;;;;25.38;17.90;;;;;;;10.83;63.30;101848.97;5111703;28;20516;-69
2022/03/17 01:20:05;;;;;;;25.35;18.35;;;;;;;10.80;63.30;101852.53;5112131;28;20101;-70
2022/03/17 01:22:33;;;;;;;26.15;17.98;;;;;;;10.77;63.47;101849.06;5112816;27;20081;-69
2022/03/17 01:25:01;;;;;;;24.63;18.33;;;;;;;10.74;63.69;101842.03;5111573;27;20036;-68
2022/03/17 01:27:29;;;;;;;26.27;18.27;;;;;;;10.71;63.89;101845.59;5108814;27;20068;-66
2022/03/17 01:29:56;;;;;;;26.17;18.70;;;;;;;10.70;63.91;101846.50;5110824;28;20217;-66
2022/03/17 01:32:25;;;;;;;27.83;18.15;;;;;;;10.68;64.19;101850.06;5112078;27;20044;-69
2022/03/17 01:34:52;;;;;;;24.85;17.48;;;;;;;10.71;64.15;101852.66;5111519;27;20498;-69
2022/03/17 01:37:19;;;;;;;26.40;17.60;;;;;;;10.71;64.17;101842.97;5111487;28;20122;-68
2022/03/17 01:39:46;;;;;;;26.88;17.45;;;;;;;10.72;64.04;101850.00;5112252;27;20076;-68
2022/03/17 01:42:14;;;;;;;27.23;18.50;;;;;;;10.72;64.07;101842.09;5110735;27;20040;-70
2022/03/17 01:44:48;;;;;;;29.75;17.95;;;;;;;10.74;64.08;101841.19;5112254;27;20040;-68
2022/03/17 01:47:27;;;;;;;25.20;18.10;;;;;;;10.71;64.13;101840.34;5110312;27;20040;-70
2022/03/17 01:50:15;;;;;;;24.75;17.13;;;;;;;10.71;64.24;101840.34;5111751;27;20091;-71
2022/03/17 01:52:44;;;;;;;26.00;18.48;;;;;;;10.69;64.17;101836.00;5109535;27;20048;-68
2022/03/17 01:55:13;;;;;;;25.05;17.27;;;;;;;10.72;64.44;101844.72;5110826;27;22303;-67
2022/03/17 01:57:41;;;;;;;24.70;17.08;;;;;;;10.78;64.26;101845.53;5108885;27;20044;-68
2022/03/17 02:00:16;;;;;;;27.83;18.10;;;;;;;10.80;64.42;101834.06;5111280;28;20040;-68
2022/03/17 02:02:51;;;;;;;26.60;16.95;;;;;;;10.83;64.30;101835.78;5111352;27;20052;-69
2022/03/17 02:05:20;;;;;;;24.80;16.63;;;;;;;10.85;64.21;101845.41;5110791;27;20619;-68
2022/03/17 02:07:53;;;;;;;26.52;17.15;;;;;;;10.88;63.97;101831.31;5111054;27;20040;-73
2022/03/17 02:10:22;;;;;;;26.75;17.90;;;;;;;10.90;64.11;101836.56;5111835;27;20123;-72
2022/03/17 02:15:36;;;;;;;26.17;18.48;;;;;;;10.91;64.13;101844.44;5109319;27;20036;-73
2022/03/17 02:18:06;;;;;;;23.30;16.98;;;;;;;10.94;64.17;101839.13;5111346;27;20032;-73
2022/03/17 02:20:36;;;;;;;23.58;16.90;;;;;;;10.95;64.22;101817.13;5109867;27;20527;-73
2022/03/17 02:26:02;;;;;;;21.73;16.35;;;;;;;11.00;64.14;101832.88;5108829;27;20545;-71
2022/03/17 02:28:32;;;;;;;23.75;16.90;;;;;;;11.02;64.23;101831.94;5112464;27;20529;-71
2022/03/17 02:31:02;;;;;;;24.33;16.90;;;;;;;11.06;64.24;101826.63;5107029;27;20055;-73
2022/03/17 02:33:29;;;;;;;24.65;16.80;;;;;;;11.09;64.49;101831.88;5109711;27;20062;-71
2022/03/17 02:35:57;;;;;;;23.75;16.95;;;;;;;11.11;64.29;101830.03;5110213;27;20040;-70
2022/03/17 02:38:24;;;;;;;28.90;17.10;;;;;;;11.13;64.42;101830.91;5104830;27;20036;-70
2022/03/17 02:40:53;;;;;;;23.73;17.00;;;;;;;11.16;64.19;101841.41;5110945;27;20040;-71
2022/03/17 02:43:21;;;;;;;24.23;16.73;;;;;;;11.18;64.30;101840.47;5111461;27;20052;-70
2022/03/17 02:45:48;;;;;;;25.80;15.77;;;;;;;11.17;64.29;101841.38;5110534;27;20032;-72
2022/03/17 02:48:16;;;;;;;23.23;16.05;;;;;;;11.19;64.19;101847.50;5111017;27;20813;-70
2022/03/17 02:50:45;;;;;;;23.30;16.58;;;;;;;11.23;64.36;101842.19;5110150;27;20090;-71
2022/03/17 02:53:13;;;;;;;23.45;16.10;;;;;;;11.24;64.38;101844.78;5109171;27;20530;-72
2022/03/17 02:55:43;;;;;;;23.40;16.95;;;;;;;11.27;64.57;101852.66;5110914;27;20048;-72
2022/03/17 02:58:14;;;;;;;22.52;16.42;;;;;;;11.26;64.70;101856.19;5110851;28;20051;-72
2022/03/17 03:00:42;;;;;;;27.10;16.98;;;;;;;11.27;64.79;101865.84;5109519;28;20043;-70
2022/03/17 03:03:10;;;;;;;23.38;16.38;;;;;;;11.29;64.87;101871.97;5109296;27;20476;-71
2022/03/17 03:05:38;;;;;;;25.50;17.33;;;;;;;11.28;65.18;101875.53;5113574;27;20101;-71
2022/03/17 03:08:05;;;;;;;25.63;17.40;;;;;;;11.26;65.42;101868.50;5112946;27;20041;-71
2022/03/17 03:10:33;;;;;;;23.25;16.60;;;;;;;11.25;65.49;101872.03;5113769;27;20060;-71
2022/03/17 03:13:01;;;;;;;26.08;16.75;;;;;;;11.22;65.82;101880.88;5113907;27;20033;-70
2022/03/17 03:15:29;;;;;;;28.70;17.55;;;;;;;11.19;66.03;101875.69;5113534;27;20043;-69
2022/03/17 03:18:01;;;;;;;27.35;18.50;;;;;;;11.17;66.65;101880.09;5107536;28;20032;-69
2022/03/17 03:20:28;;;;;;;26.30;16.60;;;;;;;11.14;67.01;101886.28;5114389;27;20082;-69
2022/03/17 03:22:55;;;;;;;29.05;18.13;;;;;;;11.11;67.12;101888.09;5115128;28;20507;-70
2022/03/17 03:25:23;;;;;;;30.30;18.38;;;;;;;11.07;67.97;101892.56;5113398;28;20102;-68
2022/03/17 03:27:50;;;;;;;28.92;18.05;;;;;;;11.04;67.99;101895.22;5109341;27;20057;-67
2022/03/17 03:30:18;;;;;;;25.92;18.38;;;;;;;10.99;68.28;101903.22;5108331;28;20064;-69
2022/03/17 03:32:47;;;;;;;28.88;18.77;;;;;;;10.99;68.50;101908.50;5112488;27;20072;-69
2022/03/17 03:38:01;;;;;;;29.75;18.60;;;;;;;10.96;68.74;101915.59;5112796;28;20043;-69
2022/03/17 03:40:29;;;;;;;30.40;18.52;;;;;;;10.95;69.22;101924.41;5113226;27;20095;-70
2022/03/17 03:42:56;;;;;;;33.42;18.67;;;;;;;10.94;69.63;101928.81;5113829;28;20048;-71
2022/03/17 03:45:23;;;;;;;34.85;19.45;;;;;;;10.92;69.74;101927.09;5114165;27;20539;-70
2022/03/17 03:47:50;;;;;;;31.05;18.65;;;;;;;10.90;70.30;101935.03;5113555;27;20515;-70
2022/03/17 03:50:19;;;;;;;32.83;19.80;;;;;;;10.88;70.29;101935.06;5111661;28;20048;-71
2022/03/17 03:52:46;;;;;;;32.35;20.05;;;;;;;10.90;72.27;101940.28;5113439;27;20044;-71
2022/03/17 03:55:13;;;;;;;28.40;18.00;;;;;;;10.86;72.26;101952.66;5113151;27;20040;-70
2022/03/17 03:57:40;;;;;;;32.75;20.50;;;;;;;10.81;72.23;101951.88;5113514;27;20523;-70
2022/03/17 04:00:20;;;;;;;29.27;19.35;;;;;;;10.78;72.20;101967.72;5113020;27;20433;-70
2022/03/17 04:02:48;;;;;;;34.72;20.10;;;;;;;10.77;74.38;101980.94;5114048;27;20069;-70
2022/03/17 04:05:17;;;;;;;27.33;16.98;;;;;;;10.71;74.44;101988.03;5113791;28;20044;-69
2022/03/17 04:07:45;;;;;;;20.05;12.38;;;;;;;10.68;74.99;101997.75;5113034;27;20051;-70
2022/03/17 04:10:12;;;;;;;23.10;14.38;;;;;;;10.61;75.79;102015.41;5112244;27;20051;-70
2022/03/17 04:12:40;;;;;;;17.52;12.02;;;;;;;10.45;77.65;102006.78;5113302;27;20040;-70
2022/03/17 04:15:09;;;;;;;16.70;10.88;;;;;;;10.34;77.91;102008.63;5112096;27;20087;-71
2022/03/17 04:17:35;;;;;;;14.85;9.77;;;;;;;10.25;77.30;102023.66;5113534;28;20149;-70
2022/03/17 04:20:05;;;;;;;16.13;10.30;;;;;;;10.13;78.40;102022.91;5113569;27;20038;-69
2022/03/17 04:22:32;;;;;;;14.27;10.95;;;;;;;10.04;77.81;102024.75;5112607;27;20044;-71
2022/03/17 04:25:00;;;;;;;14.07;10.55;;;;;;;9.99;77.91;102034.44;5111549;28;20047;-70
2022/03/17 04:27:27;;;;;;;14.73;10.48;;;;;;;9.99;78.72;102041.50;5112937;27;20067;-71
2022/03/17 04:29:54;;;;;;;22.60;12.75;;;;;;;9.85;80.32;102049.50;5109541;28;20036;-71
2022/03/17 04:32:22;;;;;;;19.90;14.10;;;;;;;9.58;81.63;102090.94;5110093;27;20043;-71
2022/03/17 04:34:49;;;;;;;15.55;10.00;;;;;;;9.35;81.43;102073.53;5111471;28;20036;-71
2022/03/17 04:37:16;;;;;;;13.05;8.95;;;;;;;9.14;80.61;102082.41;5111950;27;20086;-72
2022/03/17 04:39:43;;;;;;;15.27;9.35;;;;;;;8.95;80.63;102082.47;5114398;27;20048;-72
2022/03/17 04:42:11;;;;;;;10.30;7.45;;;;;;;8.83;80.32;102100.91;5109763;28;20098;-72
2022/03/17 04:44:38;;;;;;;10.38;6.20;;;;;;;8.75;79.79;102121.97;5112123;28;20054;-72
2022/03/17 04:47:05;;;;;;;8.25;5.75;;;;;;;8.63;79.57;102128.13;5112304;27;20139;-71
2022/03/17 04:49:32;;;;;;;13.90;6.72;;;;;;;8.59;79.68;102134.28;5113024;27;20701;-71
2022/03/17 04:51:59;;;;;;;11.07;7.10;;;;;;;8.52;79.88;102128.16;5112349;28;20047;-71
2022/03/17 04:54:27;;;;;;;14.15;8.35;;;;;;;8.48;79.71;102164.97;5113019;28;20083;-70
2022/03/17 04:56:54;;;;;;;15.43;8.70;;;;;;;8.38;80.13;102151.78;5103410;28;20047;-70
2022/03/17 04:59:22;;;;;;;17.58;9.50;;;;;;;8.31;80.47;102173.66;5128000;27;20093;-70
2022/03/17 05:01:49;;;;;;;17.42;9.65;;;;;;;8.27;81.00;102182.44;5115423;27;20051;-71
2022/03/17 05:04:16;;;;;;;16.35;8.25;;;;;;;8.24;81.17;102182.44;5112640;27;20044;-70
2022/03/17 05:06:43;;;;;;;16.05;8.90;;;;;;;8.21;81.14;102185.03;5111933;27;20036;-70
2022/03/17 05:09:10;;;;;;;19.27;9.95;;;;;;;8.15;81.72;102198.19;5110723;27;20091;-70
2022/03/17 05:11:37;;;;;;;18.85;10.38;;;;;;;8.09;81.83;102202.53;5102300;28;20050;-70
2022/03/17 05:14:05;;;;;;;19.40;9.32;;;;;;;8.06;81.78;102205.19;5109548;28;20040;-70
2022/03/17 05:16:32;;;;;;;13.63;8.88;;;;;;;8.03;81.79;102217.44;5112152;27;20043;-70
2022/03/17 05:18:59;;;;;;;19.77;10.45;;;;;;;7.98;81.86;102222.69;5111555;28;20130;-71
2022/03/17 05:21:26;;;;;;;15.57;9.82;;;;;;;7.94;82.09;102223.53;5111554;27;20462;-71
2022/03/17 05:23:53;;;;;;;17.15;9.75;;;;;;;7.98;81.84;102224.41;5112554;28;21659;-70
2022/03/17 05:26:20;;;;;;;21.27;9.73;;;;;;;7.96;81.88;102234.03;5110423;27;20044;-71
2022/03/17 05:28:47;;;;;;;22.38;11.82;;;;;;;7.93;82.14;102246.31;5111397;28;20074;-71
2022/03/17 05:31:15;;;;;;;21.50;12.02;;;;;;;7.91;81.84;102248.03;5110415;27;20052;-71
2022/03/17 05:33:42;;;;;;;20.02;11.27;;;;;;;7.87;82.13;102263.78;5111604;27;20104;-73
2022/03/17 05:36:09;;;;;;;19.65;13.48;;;;;;;7.84;82.29;102266.38;5102085;27;20047;-69
2022/03/17 05:38:36;;;;;;;26.92;13.95;;;;;;;7.80;82.60;102275.09;5111379;28;20043;-72
2022/03/17 05:41:03;;;;;;;20.52;12.75;;;;;;;7.75;82.89;102289.09;5107971;27;20040;-70
2022/03/17 05:43:30;;;;;;;28.42;14.80;;;;;;;7.77;83.14;102292.63;5097203;28;20044;-71
2022/03/17 05:45:58;;;;;;;23.63;12.68;;;;;;;7.77;82.83;102291.72;5112341;27;20036;-71
2022/03/17 05:48:25;;;;;;;28.88;14.10;;;;;;;7.76;82.85;102295.22;5094941;27;20036;-70
2022/03/17 05:50:53;;;;;;;20.85;11.60;;;;;;;7.74;82.39;102303.09;5110019;27;20457;-71
2022/03/17 05:53:20;;;;;;;21.30;11.82;;;;;;;7.71;82.20;102321.47;5111455;27;20204;-70
2022/03/17 05:55:47;;;;;;;23.48;11.00;;;;;;;7.70;82.25;102331.97;5111200;27;20040;-69
2022/03/17 05:58:14;;;;;;;14.30;8.70;;;;;;;7.71;80.58;102345.06;5110178;28;20043;-67
2022/03/17 06:00:41;;;;;;;22.77;7.75;;;;;;;7.67;78.99;102339.81;5111205;27;20047;-68
2022/03/17 06:03:08;;;;;;;17.30;7.05;;;;;;;7.64;78.53;102331.91;5112355;27;20036;-67
2022/03/17 06:05:35;;;;;;;18.63;5.85;;;;;;;7.62;76.97;102360.78;5110254;27;20040;-68
2022/03/17 06:08:08;;;;;;;13.77;5.25;;;;;;;7.55;76.01;102357.22;5110750;28;20153;-70
2022/03/17 06:10:36;;;;;;;12.63;4.13;;;;;;;7.53;75.79;102379.97;5108887;28;20476;-70
2022/03/17 06:13:05;;;;;;;13.88;4.32;;;;;;;7.53;75.80;102386.97;5104698;27;20040;-73
2022/03/17 06:15:36;;;;;;;15.38;4.00;;;;;;;7.49;75.17;102390.41;5127120;27;20036;-73
2022/03/17 06:18:05;;;;;;;13.32;4.07;;;;;;;7.44;75.62;102404.41;5111858;28;20151;-71
2022/03/17 06:20:37;;;;;;;13.60;3.72;;;;;;;7.39;75.69;102403.47;5112064;28;20036;-70
2022/03/17 06:23:07;;;;;;;13.57;4.13;;;;;;;7.39;75.74;102402.59;5113013;27;20068;-70
2022/03/17 06:25:36;;;;;;;13.00;3.97;;;;;;;7.38;75.54;102401.72;5112617;28;20498;-71
2022/03/17 06:28:09;;;;;;;8.57;3.25;;;;;;;7.40;75.78;102422.75;5110602;28;20050;-72
2022/03/17 06:30:37;;;;;;;13.50;3.95;;;;;;;7.40;75.75;102420.97;5108542;28;20040;-72
2022/03/17 06:33:06;;;;;;;11.23;3.40;;;;;;;7.39;75.51;102427.09;5104061;28;20105;-72
2022/03/17 06:35:34;;;;;;;9.82;3.47;;;;;;;7.38;75.88;102429.72;5110814;27;20115;-72
2022/03/17 06:38:05;;;;;;;9.18;3.10;;;;;;;7.37;75.27;102441.06;5109881;27;20040;-72
2022/03/17 06:40:35;;;;;;;7.60;2.80;;;;;;;7.39;75.28;102449.84;5110217;27;20044;-71
2022/03/17 06:43:04;;;;;;;8.07;2.88;;;;;;;7.33;75.97;102458.53;5114402;27;20044;-72
2022/03/17 06:45:32;;;;;;;11.68;3.17;;;;;;;7.26;76.70;102472.47;5109855;28;20127;-72
2022/03/17 06:47:59;;;;;;;9.65;2.88;;;;;;;7.18;76.85;102472.38;5114064;27;20602;-72
2022/03/17 06:50:27;;;;;;;11.85;2.53;;;;;;;7.15;77.05;102478.50;5114267;27;20565;-73
2022/03/17 06:52:55;;;;;;;12.40;2.95;;;;;;;7.11;77.44;102487.16;5113113;27;20067;-72
2022/03/17 06:55:23;;;;;;;14.57;3.03;;;;;;;7.08;78.11;102489.75;5114117;27;20040;-71
2022/03/17 06:57:50;;;;;;;7.97;2.72;;;;;;;7.12;78.18;102491.56;5114414;27;20040;-73
2022/03/17 07:00:21;;;;;;;13.95;2.88;;;;;;;7.18;78.03;102501.25;5113301;27;20544;-73
2022/03/17 07:02:48;;;;;;;6.90;2.97;;;;;;;7.18;77.51;102503.88;5110812;27;20509;-72
2022/03/17 07:05:16;;;;;;;10.38;3.22;;;;;;;7.18;77.42;102505.59;5112686;27;20589;-72
2022/03/17 07:07:43;;;;;;;7.70;2.35;;;;;;;7.26;76.83;102514.44;5122917;27;20043;-72
2022/03/17 07:10:13;;;;;;;10.45;2.95;;;;;;;7.35;76.63;102511.91;5116145;27;20048;-73
2022/03/17 07:12:41;;;;;;;11.18;3.05;;;;;;;7.44;75.96;102519.88;5112853;28;20478;-73
2022/03/17 07:15:11;;;;;;;8.48;2.70;;;;;;;7.50;75.71;102524.28;5107425;27;20043;-72
2022/03/17 07:17:40;;;;;;;9.02;1.95;;;;;;;7.57;74.73;102517.38;5094116;28;20493;-72
2022/03/17 07:20:19;;;;;;;6.88;2.47;;;;;;;7.67;74.54;102531.44;5112204;28;20095;-72
2022/03/17 07:22:49;;;;;;;6.63;2.40;;;;;;;7.83;74.18;102538.59;5115417;27;20044;-71
2022/03/17 07:25:17;;;;;;;10.73;2.40;;;;;;;8.00;73.46;102553.59;5115640;28;20036;-71
2022/03/17 07:27:47;;;;;;;8.95;2.60;;;;;;;8.07;73.06;102543.16;5114286;27;20052;-72
2022/03/17 07:30:22;;;;;;;11.43;2.58;;;;;;;8.13;72.54;102547.56;5109955;27;20567;-72
2022/03/17 07:32:52;;;;;;;8.27;2.22;;;;;;;8.06;71.85;102551.91;5114969;27;20036;-72
2022/03/17 07:35:29;;;;;;;12.63;2.33;;;;;;;8.08;72.47;102563.31;5115523;27;20051;-71
2022/03/17 07:37:58;;;;;;;10.25;2.20;;;;;;;8.09;71.71;102569.44;5115124;27;20032;-72
2022/03/17 07:40:26;;;;;;;14.05;2.28;;;;;;;8.08;72.44;102573.81;5115488;27;20062;-71
2022/03/17 07:42:54;;;;;;;14.00;2.20;;;;;;;8.06;72.44;102586.06;5115430;27;20111;-71
2022/03/17 07:45:30;;;;;;;9.73;2.10;;;;;;;8.13;72.33;102580.84;5115221;27;20040;-72
2022/03/17 07:48:16;;;;;;;12.30;1.90;;;;;;;8.05;72.30;102589.53;5113520;28;20521;-71
2022/03/17 07:50:53;;;;;;;11.45;2.67;;;;;;;7.99;72.59;102596.50;5113222;28;20040;-72
2022/03/17 07:53:20;;;;;;;10.20;2.05;;;;;;;8.02;71.96;102604.41;5115042;27;20044;-71
2022/03/17 07:55:47;;;;;;;10.27;1.80;;;;;;;8.01;71.62;102602.63;5115075;27;20036;-72
2022/03/17 07:58:15;;;;;;;10.88;1.98;;;;;;;8.02;71.91;102607.03;5114836;27;20048;-71
2022/03/17 08:00:45;;;;;;;12.32;2.20;;;;;;;8.03;71.85;102614.03;5114953;27;20048;-72
2022/03/17 08:03:13;;;;;;;7.82;1.55;;;;;;;8.02;71.84;102636.78;5115109;27;20498;-71
2022/03/17 08:05:40;;;;;;;9.70;1.60;;;;;;;8.06;71.29;102630.72;5113007;27;20141;-71
2022/03/17 08:08:07;;;;;;;8.10;1.40;;;;;;;7.98;72.14;102642.00;5114820;27;20069;-71
2022/03/17 08:10:34;;;;;;;10.18;2.00;;;;;;;8.01;72.55;102653.41;5114256;27;20052;-72
2022/03/17 08:13:02;;;;;;;11.98;1.77;;;;;;;8.04;72.73;102653.44;5114778;27;20070;-71
2022/03/17 08:15:29;;;;;;;9.88;1.50;;;;;;;8.12;72.28;102645.66;5114531;27;20054;-72
2022/03/17 08:17:56;;;;;;;13.70;1.80;;;;;;;8.19;72.00;102646.59;5114447;27;20078;-72
2022/03/17 08:20:28;;;;;;;10.48;1.60;;;;;;;8.23;71.92;102658.84;5106211;27;20044;-72
2022/03/17 08:22:56;;;;;;;6.88;1.30;;;;;;;8.22;71.24;102657.09;5094112;28;20037;-71
2022/03/17 08:25:23;;;;;;;7.00;1.55;;;;;;;8.28;70.78;102667.69;5094075;28;20052;-71
2022/03/17 08:27:50;;;;;;;9.82;1.30;;;;;;;8.28;70.01;102675.56;5093245;28;20057;-71
2022/03/17 08:30:18;;;;;;;11.27;2.03;;;;;;;8.27;70.84;102680.78;5093395;28;20123;-72
2022/03/17 08:32:45;;;;;;;8.25;1.70;;;;;;;8.28;70.41;102683.44;5108147;27;20036;-73
2022/03/17 08:35:14;;;;;;;7.55;1.45;;;;;;;8.24;70.36;102692.16;5114392;27;20504;-72
2022/03/17 08:37:43;;;;;;;12.88;2.13;;;;;;;8.11;70.93;102700.78;5114378;27;20050;-72
2022/03/17 08:40:13;;;;;;;13.27;1.52;;;;;;;8.06;70.71;102705.97;5114399;27;20036;-72
2022/03/17 08:42:41;;;;;;;9.48;1.63;;;;;;;7.99;71.14;102719.94;5114439;27;20127;-71
2022/03/17 08:50:44;;;;;;;12.98;1.70;;;;;;;7.57;72.50;102740.47;5113837;28;20159;-72
2022/03/17 08:53:12;;;;;;;7.57;1.50;;;;;;;7.46;72.57;102732.44;5113783;27;20048;-71
2022/03/17 08:55:39;;;;;;;15.00;2.13;;;;;;;7.48;71.74;102740.34;5114193;27;20075;-71
2022/03/17 08:58:08;;;;;;;9.70;1.65;;;;;;;7.49;71.85;102749.97;5114298;27;20036;-72
2022/03/17 09:00:35;;;;;;;8.02;1.55;;;;;;;7.61;71.60;102751.03;5103229;27;20045;-72
2022/03/17 09:03:06;;;;;;;10.10;1.60;;;;;;;7.77;70.81;102759.97;5093566;28;20048;-72
2022/03/17 09:05:35;;;;;;;10.65;2.20;;;;;;;7.99;69.67;102759.31;5093378;28;20051;-72
2022/03/17 09:08:06;;;;;;;8.75;1.60;;;;;;;8.17;69.23;102769.16;5093161;28;20051;-72
2022/03/17 09:10:38;;;;;;;10.40;1.65;;;;;;;8.44;68.79;102765.03;5093475;28;20107;-73
2022/03/17 09:13:07;;;;;;;13.10;2.28;;;;;;;8.79;68.03;102773.28;5093273;28;20124;-72
2022/03/17 09:15:40;;;;;;;9.13;1.73;;;;;;;9.05;64.31;102769.97;5104607;28;20110;-72
2022/03/17 09:18:12;;;;;;;13.63;1.85;;;;;;;9.27;64.00;102773.59;5113308;27;20044;-72
2022/03/17 09:20:41;;;;;;;9.55;1.85;;;;;;;9.55;63.16;102778.16;5113702;27;20032;-71
2022/03/17 09:23:09;;;;;;;7.35;1.67;;;;;;;9.76;62.84;102769.44;5113860;27;20117;-71
2022/03/17 09:25:36;;;;;;;12.48;2.38;;;;;;;9.93;61.72;102782.69;5114898;27;20051;-73
2022/03/17 09:28:05;;;;;;;16.98;2.03;;;;;;;9.90;60.99;102791.47;5113990;27;20182;-71
2022/03/17 09:30:34;;;;;;;17.08;2.35;;;;;;;10.03;61.25;102791.50;5106652;28;20041;-72
2022/03/17 09:33:03;;;;;;;7.18;1.48;;;;;;;10.01;60.88;102794.13;5097194;28;20071;-72
2022/03/17 09:35:30;;;;;;;8.38;2.00;;;;;;;10.05;61.21;102800.28;5103829;28;20040;-72
2022/03/17 09:37:57;;;;;;;11.55;1.85;;;;;;;9.94;60.28;102793.22;5113719;27;20086;-72
2022/03/17 09:40:24;;;;;;;12.48;2.22;;;;;;;9.87;60.54;102809.91;5113698;27;20070;-72
2022/03/17 09:43:18;;;;;;;8.50;1.55;;;;;;;9.83;59.90;102815.16;5112043;28;20505;-71
2022/03/17 09:45:42;;;;;;;18.77;2.60;;;;;;;9.81;59.07;102808.97;5113012;27;20047;-71
2022/03/17 09:48:12;;;;;;;12.23;1.90;;;;;;;9.85;59.13;102821.31;5113689;27;20068;-71
2022/03/17 09:50:41;;;;;;;6.82;1.90;;;;;;;9.93;58.93;102823.06;5113002;27;20055;-72
2022/03/17 09:53:10;;;;;;;12.88;1.85;;;;;;;10.04;58.85;102838.94;5113420;27;20044;-72
2022/03/17 09:55:37;;;;;;;6.80;1.65;;;;;;;10.08;58.02;102837.19;5112935;27;20067;-72
2022/03/17 09:58:06;;;;;;;11.15;2.03;;;;;;;10.14;57.86;102844.25;5113109;27;20040;-72
2022/03/17 10:00:49;;;;;;;8.05;2.08;;;;;;;10.13;57.15;102853.03;5112886;27;20145;-72
2022/03/17 10:03:20;;;;;;;12.18;2.33;;;;;;;10.02;57.45;102851.22;5108851;27;20630;-72
2022/03/17 10:05:49;;;;;;;18.73;2.70;;;;;;;9.99;57.45;102864.38;5113078;27;20086;-71
2022/03/17 10:08:23;;;;;;;11.52;2.17;;;;;;;9.84;56.64;102859.91;5112481;27;20755;-71
2022/03/17 10:10:52;;;;;;;9.48;2.55;;;;;;;9.76;57.45;102859.91;5113118;27;20039;-72
2022/03/17 10:13:25;;;;;;;14.10;2.40;;;;;;;9.85;57.70;102859.06;5113088;27;20056;-71
2022/03/17 10:16:12;;;;;;;15.10;2.30;;;;;;;10.03;57.50;102854.72;5112892;27;20497;-72
2022/03/17 10:18:40;;;;;;;16.23;2.60;;;;;;;10.13;57.08;102869.72;5110159;27;20040;-72
2022/03/17 10:21:15;;;;;;;6.30;1.67;;;;;;;10.11;55.15;102879.38;5112446;27;20132;-72
2022/03/17 10:23:51;;;;;;;17.70;2.20;;;;;;;9.94;54.35;102884.56;5112737;27;20051;-72
2022/03/17 10:26:54;;;;;;;10.00;1.95;;;;;;;9.97;55.19;102888.97;5112591;27;20142;-73
2022/03/17 10:29:26;;;;;;;28.17;3.17;;;;;;;10.10;55.30;102889.03;5112236;27;20089;-72
2022/03/17 10:32:00;;;;;;;13.48;2.00;;;;;;;10.18;54.67;102896.09;5112526;27;20040;-72
2022/03/17 10:34:31;;;;;;;;;;;;;;;10.29;54.50;102897.00;5111737;27;20036;-71
2022/03/17 10:37:09;;;;;;;12.98;1.77;;;;;;;10.34;54.87;102907.56;5111918;28;19935;-71
2022/03/17 10:39:45;;;;;;;9.82;1.75;;;;;;;10.43;54.27;102906.78;5112805;27;20135;-73
2022/03/17 10:42:21;;;;;;;14.60;2.50;;;;;;;10.50;55.91;102906.81;5112443;27;20481;-73
2022/03/17 10:44:58;;;;;;;11.75;1.75;;;;;;;10.71;54.78;102907.72;5112480;27;20032;-72
2022/03/17 10:47:40;;;;;;;8.25;1.33;;;;;;;10.83;54.43;102918.31;5112605;27;20088;-72
2022/03/17 10:50:19;;;;;;;10.52;1.60;;;;;;;10.75;56.14;102917.41;5111775;27;20878;-72
2022/03/17 10:52:52;;;;;;;10.30;1.63;;;;;;;10.67;55.84;102921.78;5112585;28;20685;-72
2022/03/17 10:55:30;;;;;;;17.48;2.15;;;;;;;10.54;56.74;102934.06;5112420;27;20046;-72
2022/03/17 10:58:18;;;;;;;16.50;2.78;;;;;;;10.44;55.60;102937.53;5112826;27;20147;-72
2022/03/17 11:00:55;;;;;;;10.65;1.67;;;;;;;10.33;56.52;102946.25;5111984;27;20040;-72
2022/03/17 11:03:25;;;;;;;12.02;2.10;;;;;;;10.53;56.20;102956.03;5112203;27;20073;-72
2022/03/17 11:05:53;;;;;;;9.00;2.03;;;;;;;10.52;54.39;102956.91;5100559;27;20502;-72
2022/03/17 11:08:21;;;;;;;19.33;1.85;;;;;;;10.53;55.35;102954.25;5091818;28;20044;-71
2022/03/17 11:10:49;;;;;;;15.57;1.95;;;;;;;10.67;54.30;102964.88;5099172;28;20109;-71
2022/03/17 11:13:19;;;;;;;11.77;2.80;;;;;;;10.82;54.70;102963.16;5110541;28;20044;-72
2022/03/17 11:16:02;;;;;;;7.55;1.80;;;;;;;10.93;52.97;102976.38;5110983;27;20036;-73
2022/03/17 11:18:36;;;;;;;9.77;2.13;;;;;;;10.77;51.79;102978.09;5111101;27;20579;-71
2022/03/17 11:21:15;;;;;;;;;;;;;;;10.58;52.67;102993.88;5112740;27;20040;-71
2022/03/17 11:24:04;;;;;;;11.90;1.65;;;;;;;10.33;53.52;102995.44;5112082;27;20783;-71
2022/03/17 11:26:38;;;;;;;10.38;1.80;;;;;;;10.32;54.45;102998.97;5094812;28;20081;-72
2022/03/17 11:29:15;;;;;;;12.93;1.73;;;;;;;10.33;53.21;103016.53;5105382;28;20040;-73
2022/03/17 11:31:56;;;;;;;13.98;1.88;;;;;;;10.56;53.61;103008.81;5115009;28;20048;-73
2022/03/17 11:34:38;;;;;;;9.82;1.60;;;;;;;10.71;53.16;103002.69;5114759;27;20405;-71
2022/03/17 11:37:26;;;;;;;17.90;2.35;;;;;;;10.70;52.68;103006.22;5112016;28;20525;-71
2022/03/17 11:40:03;;;;;;;8.43;1.20;;;;;;;10.72;51.98;103015.03;5115393;28;20121;-71
2022/03/17 11:42:54;;;;;;;4.20;1.08;;;;;;;10.79;52.20;103018.53;5114984;28;20044;-72
2022/03/17 11:45:21;;;;;;;7.07;1.10;;;;;;;10.91;51.35;103004.53;5092640;28;20060;-72
2022/03/17 11:48:03;;;;;;;6.57;1.23;;;;;;;10.97;51.51;103017.72;5093853;28;20052;-72